Flight Track Log - Related Links

Times and Time Zones

All times are in EST time to prevent confusion due to time zone crossing. See the N173DS flight status page for this flight to view local times or setup timezone preferences in your user account.

Time Position Orientation Groundspeed Altitude Reporting Facility
EST Latitude Longitude Course Direction KTS MPH feet Rate Location/Type
Thu 01:07:01 PM 28.5500 -81.3167 41° Northeast 178 205 800  Level Orlando TRACON
Thu 01:08:02 PM 28.6000 -81.2667 41° Northeast 200 230 1,700 744 Climbing Orlando TRACON
Thu 01:09:02 PM 28.6500 -81.2833 344° North 216 249 2,300 600 Climbing Orlando TRACON
Thu 01:10:02 PM 28.6667 -81.3500 286° West 228 262 2,900 1,686 Climbing Orlando TRACON
Thu 01:11:03 PM 28.6333 -81.4000 233° Southwest 227 261 5,700 2,826 Climbing Orlando TRACON
Thu 01:12:03 PM 28.6000 -81.4667 240° Southwest 223 257 8,600 2,650 Climbing Orlando TRACON
Thu 01:13:03 PM 28.5833 -81.5333 254° West 260 299 11,000 2,694 Climbing Orlando TRACON
Thu 01:15:19 PM 28.5078 -81.7256 246° West 313 360 17,400 2,939 Climbing Jacksonville Center
Thu 01:16:19 PM 28.4817 -81.8344 255° West 331 381 20,600 3,350 Climbing Jacksonville Center
Thu 01:17:19 PM 28.4553 -81.9433 255° West 353 406 24,100 2,700 Climbing Jacksonville Center
Thu 01:18:19 PM 28.4269 -82.0642 255° West 358 412 26,000 1,800 Climbing Jacksonville Center
Thu 01:19:19 PM 28.3983 -82.1822 255° West 370 426 27,700 1,950 Climbing Jacksonville Center
Thu 01:20:19 PM 28.3844 -82.3075 263° West 388 447 29,900 1,300 Climbing Jacksonville Center
Thu 01:21:19 PM 28.4350 -82.4158 298° West 404 465 30,300 950 Climbing Jacksonville Center
Thu 01:22:19 PM 28.4853 -82.5264 297° West 404 465 31,800 850 Climbing Jacksonville Center
Thu 01:23:19 PM 28.5336 -82.6375 296° West 404 465 32,000 400 Climbing Jacksonville Center
Thu 01:25:19 PM 28.6300 -82.8714 295° West 402 463 33,000 1,067 Climbing Jacksonville Center
Thu 01:26:19 PM 28.6800 -82.9992 294° West 402 463 35,200 2,500 Climbing Jacksonville Center
Thu 01:27:19 PM 28.7217 -83.1056 294° West 391 450 38,000 2,350 Climbing Jacksonville Center
Thu 01:28:19 PM 28.7653 -83.2053 297° West 375 432 39,900 1,000 Climbing Jacksonville Center
Thu 01:29:19 PM 28.8044 -83.3072 294° West 356 410 40,000 50 Climbing Jacksonville Center
Thu 01:30:19 PM 28.8500 -83.4164 295° West 361 415 40,000  Level Jacksonville Center
Thu 01:31:19 PM 28.8933 -83.5306 293° West 379 436 40,000  Level Jacksonville Center
Thu 01:32:19 PM 28.9367 -83.6306 296° West 384 442 40,000  Level Jacksonville Center
Thu 01:33:19 PM 28.9797 -83.7422 294° West 384 442 40,000  Level Jacksonville Center
Thu 01:34:19 PM 29.0250 -83.8542 295° West 384 442 40,000  Level Jacksonville Center
Thu 01:35:19 PM 29.0700 -83.9664 295° West 384 442 40,000  Level Jacksonville Center
Thu 01:36:19 PM 29.1150 -84.0786 295° West 384 442 40,000  Level Jacksonville Center
Thu 01:37:19 PM 29.1578 -84.1886 294° West 384 442 40,000  Level Jacksonville Center
Thu 01:38:19 PM 29.2044 -84.3008 295° West 384 442 40,000  Level Jacksonville Center
Thu 01:39:19 PM 29.2344 -84.4156 287° West 379 436 40,000  Level Jacksonville Center
Thu 01:40:19 PM 29.2558 -84.5444 281° West 373 429 40,000  Level Jacksonville Center
Thu 01:41:19 PM 29.2731 -84.6614 280° West 373 429 40,000  Level Jacksonville Center
Thu 01:42:19 PM 29.2922 -84.7783 281° West 373 429 40,000  Level Jacksonville Center
Thu 01:43:19 PM 29.3133 -84.8956 282° West 373 429 40,000  Level Jacksonville Center
Thu 01:44:19 PM 29.3303 -85.0125 279° West 373 429 40,000  Level Jacksonville Center
Thu 01:45:19 PM 29.3472 -85.1297 279° West 373 429 40,000  Level Jacksonville Center
Thu 01:46:19 PM 29.3681 -85.2444 282° West 373 429 40,000  Level Jacksonville Center
Thu 01:47:19 PM 29.3889 -85.3617 282° West 373 429 40,000  Level Jacksonville Center
Thu 01:48:19 PM 29.4075 -85.4789 280° West 373 429 40,000  Level Jacksonville Center
Thu 01:49:19 PM 29.4258 -85.5964 280° West 373 429 40,000  Level Jacksonville Center
Thu 01:50:19 PM 29.4442 -85.7161 280° West 373 429 40,000  Level Jacksonville Center
Thu 01:51:19 PM 29.4625 -85.8311 280° West 373 429 40,000  Level Jacksonville Center
Thu 01:52:19 PM 29.4783 -85.9508 279° West 379 436 40,000  Level Jacksonville Center
Thu 01:53:19 PM 29.4983 -86.0683 281° West 374 430 40,000  Level Jacksonville Center
Thu 01:54:19 PM 29.5164 -86.1881 280° West 374 430 40,000  Level Jacksonville Center
Thu 01:55:19 PM 29.5361 -86.3081 281° West 374 430 40,000  Level Jacksonville Center
Thu 01:56:19 PM 29.5517 -86.4281 279° West 374 430 40,000  Level Jacksonville Center
Thu 01:57:19 PM 29.5714 -86.5458 281° West 374 430 40,000  Level Jacksonville Center
Thu 01:58:19 PM 29.5886 -86.6633 280° West 374 430 40,000  Level Jacksonville Center
Thu 01:59:19 PM 29.6061 -86.7836 280° West 374 430 40,000  Level Jacksonville Center
Thu 02:00:19 PM 29.6233 -86.9011 280° West 374 430 40,000  Level Jacksonville Center
Thu 02:01:19 PM 29.6425 -87.0214 280° West 374 430 40,000  Level Jacksonville Center
Thu 02:02:19 PM 29.6592 -87.1442 279° West 380 437 40,000  Level Jacksonville Center
Thu 02:03:19 PM 29.6781 -87.2619 280° West 380 437 40,000  Level Jacksonville Center
Thu 02:04:19 PM 29.6908 -87.3797 277° West 380 437 40,000  Level Jacksonville Center
Thu 02:04:49 PM 29.7022 -87.4325 284° West 381 438 40,000  Level Houston Center
Thu 02:05:51 PM 29.7208 -87.5528 280° West 383 441 40,000  Level Houston Center
Thu 02:06:54 PM 29.7356 -87.6731 278° West 381 438 40,000  Level Houston Center
Thu 02:07:56 PM 29.7544 -87.8181 279° West 382 440 40,000 -435 Level Houston Center
Thu 02:08:58 PM 29.7706 -87.9331 279° West 371 427 39,100 -1,500 Descending Houston Center
Thu 02:10:00 PM 29.7872 -88.0472 280° West 363 418 36,900 -2,081 Descending Houston Center
Thu 02:11:02 PM 29.8008 -88.1611 278° West 360 414 34,800 -2,129 Descending Houston Center
Thu 02:12:04 PM 29.8181 -88.2767 280° West 363 418 32,500 -2,468 Descending Houston Center
Thu 02:13:06 PM 29.8383 -88.4217 279° West 398 458 29,700 -2,592 Descending Houston Center
Thu 02:14:09 PM 29.8558 -88.5542 279° West 417 480 27,100 -2,448 Descending Houston Center
Thu 02:15:11 PM 29.8733 -88.6906 278° West 428 493 24,600 -2,274 Descending Houston Center
Thu 02:16:13 PM 29.8900 -88.8131 279° West 397 457 22,400 -2,177 Descending Houston Center
Thu 02:17:15 PM 29.9044 -88.9331 278° West 381 438 20,100 -2,468 Descending Houston Center
Thu 02:18:17 PM 29.9231 -89.0772 279° West 379 436 17,300 -2,371 Descending Houston Center
Thu 02:19:19 PM 29.9383 -89.1947 279° West 375 432 15,200 -1,870 Descending Houston Center
Thu 02:19:34 PM 29.9428 -89.2233 280° West 359 413 14,900 -1,839 Descending Houston Center
Thu 02:20:21 PM 29.9522 -89.3042 278° West 354 407 13,300 -2,182 Descending Houston Center
Thu 02:20:29 PM 29.9550 -89.3211 281° West 337 388 12,900 -1,905 Descending Houston Center
Thu 02:21:24 PM 29.9667 -89.4108 279° West 342 394 11,300 -1,869 Descending Houston Center
Thu 02:21:30 PM 29.9672 -89.4286 272° West 336 387 11,000 -290 Descending Houston Center
Thu 02:22:26 PM 29.9786 -89.5122 279° West 328 377 11,000  Level Houston Center
Thu 02:22:31 PM 29.9817 -89.5358 279° West 313 360 11,000  Level Houston Center
Thu 02:23:28 PM 29.9914 -89.6075 279° West 309 356 11,000  Level Houston Center
Thu 02:23:32 PM 29.9933 -89.6314 275° West 295 339 11,000 -97 Level Houston Center
Thu 02:24:30 PM 30.0017 -89.7033 278° West 302 348 10,900 -295 Descending Houston Center
Thu 02:24:33 PM 30.0028 -89.7247 273° West 297 342 10,700 -2,226 Descending Houston Center
Thu 02:25:32 PM 30.0022 -89.8089 270° West 281 323 8,600 -2,066 Descending Houston Center
Thu 02:25:34 PM 30.0017 -89.8111 254° West 266 306 8,600 -3,097 Level Houston Center
Thu 02:26:34 PM 29.9678 -89.8797 240° Southwest 259 298 5,400 -2,951 Descending Houston Center
Thu 02:27:36 PM 29.9433 -89.9547 249° West 253 291 2,600 -2,430 Descending Houston Center
Thu 02:27:53 PM 29.9444 -89.9769 273° West 231 266 2,200 -677 Descending Houston Center
Thu 02:28:38 PM 29.9539 -90.0192 284° West 223 257 1,900 -490 Descending Houston Center
Thu 02:28:42 PM 29.9606 -90.0242 327° Northwest 173 199 1,800 -857 Descending Houston Center
Thu 02:29:41 PM 29.9892 -90.0300 350° North 163 188 1,000 -787 Descending Houston Center
Thu 02:29:43 PM 29.9942 -90.0300 360° North 112 129 1,000 -677 Level Houston Center
Thu 02:30:43 PM 30.0239 -90.0294 North 138 159 300 -700 Descending Houston Center

Login

Don't have an account? Register now (free) for customized features, flight alerts, and more!